Aérodrome :
LOGIN :

S'inscrire | Disclaimer

   EN    FR    IT 

 










Légende :    VFR   VFR Marginal   IFR   IFR Intensif   IFR Très Intensif
Visi : 
Plafond : 
>= 8 km
>= 3000ft
5 à 8 km
1000 à 3000 ft
1500m à 5 km
500 à 1000 ft
800 à 1500m
200 à 500 ft
< 800m
< 200 ft
Symboles :   Orages  Brouillard  Fortes neiges  Fortes précipitations  Vent > 20 kt
SIGMETs :   Divers  Orages  Givrage  Turbulence  Onde Orograph.  Cendres Volcan.







- Altitude de l'aérodrome : 268 ft
- Code IATA : BFS
- Voir les cartes d'approche


EGAA - Belfast Aldergrove

DERNIER METAR :
  • 222020Z 26011KT 240V310 CAVOK 06/02 Q1025

METARs EXPIRÉS :
  • 221950Z 27013KT 240V320 9999 FEW040 06/01 Q1025
  • 221920Z 25015KT 9999 FEW030 07/02 Q1024
  • 221850Z 25017KT 9999 FEW047 07/01 Q1024
  • 221820Z 26014KT 9999 FEW038 07/01 Q1023
  • 221750Z 27013KT 9999 FEW040 08/02 Q1023

TAF TAF EGAA
Valide du 22 à 18h jusqu'au 23 à 18h UTC


221657Z 2218/2318 26010KT 9999 FEW030
Pas de NOTAMs connus pour ce terrain.
1 SIGMET publié pour la FIR Scottish (EGPX) :
 
Turbulence forte
EGPX SIGMET 09 VALID 221900/222300 EGRR
EGPX SCOTTISH FIR SEV TURB FCST N OF LINE N5827 E00235 - N5702 W01000 SFC/FL060 STNR NC=



MET'MAP, la Météo Aéronautique d'un coup d'oeil ! - Copyright ORBIFLY Décembre 2007 - Disclaimer

ORBIFLY MET'MAP TEAM :

Programmation & Développement : Alexandra Zaïnal
Conception & Développement : Baudouin d'Aumeries
Co-Programmation & Développement : Marc-Olivier Méhu
Soutien technique & logistique : Manuel Goepfert

Contact : metmap@orbifly.com




SOURCES & CREDITS :

   NOAA